Draper, SD (57531)

8:39 AM MDT on July 25, 2016 (GMT -0600)
Murdo | | Change Station

Elev 2316 ft 43.89 °N, 100.71 °W | Updated 12 minutes ago

Clear
Clear
75.0 °F
Feels Like 77 °F
N
16.6
Wind Variable Wind from SSE

Today
High -- | Low -- °F
--% Chance of Precip.
Yesterday
High -- | Low -- °F
Precip. -- in
Pressure 30.02 in
Visibility 10.0 miles
Clouds Clear
Heat Index 77 °F
Dew Point 61 °F
Humidity 62%
Rainfall 0.00 in
Snow Depth Not available.
5:23 AM 8:12 PM
Waning Gibbous, 65% visible
METAR KPIR 251353Z AUTO 18007KT 10SM CLR 25/15 A3006 RMK AO2 SLP165 T02500150
Pressure 30.02 in
Visibility 10.0 miles
Clouds Clear
Heat Index 77 °F
Dew Point 61 °F
Humidity 62%
Rainfall 0.00 in
Snow Depth Not available.
5:23 AM 8:12 PM
Waning Gibbous, 65% visible
METAR KPIR 251353Z AUTO 18007KT 10SM CLR 25/15 A3006 RMK AO2 SLP165 T02500150

10-Day Weather Forecast

Almanac

Astronomy

Jul. 25, 2016 Rise Set
Actual Time
Civil Twilight
Nautical Twilight
Astronomical Twilight
Moon
Length of Visible Light
Length of Day
Tomorrow will be .
, % of the Moon is Illuminated

Today's Extremes

State Highs State Lows

Community

WunderPhotos

Upload Photos

1,927,305 photos uploaded!

WunderBlog® & News

Nearby

Air Quality

  Air Quality AQ Index Pollutant
Not available.

Snow Depth

Station Depth Elevation

Earthquake Activity

City Distance Mag. Time & Date
Minimum magnitude displayed is 2.5.

Coastal Water Temperatures

Place Temperature

Stations

Nearby Weather Stations

Station Location Temp. Windchill Dew Point Humidity Wind Precip. Elev Updated Type
                   

Watches & Warnings

There are currently no watches in effect.